createdAt,value
2022-12-17T00:02:38.737Z,95.55
2022-12-17T00:05:21.346Z,104.70
2022-12-17T00:08:11.641Z,113.97
2022-12-17T00:10:53.592Z,102.20
2022-12-17T00:13:37.072Z,98.18
2022-12-17T00:16:22.976Z,98.53
2022-12-17T00:19:05.036Z,95.45
2022-12-17T00:21:46.994Z,108.53
2022-12-17T00:24:31.532Z,108.75
2022-12-17T00:27:13.543Z,102.30
2022-12-17T00:30:10.130Z,94.20
2022-12-17T00:32:52.101Z,111.35
2022-12-17T00:35:34.091Z,97.75
2022-12-17T00:38:16.165Z,96.40
2022-12-17T00:41:05.894Z,96.30
2022-12-17T00:43:47.870Z,101.22
2022-12-17T00:46:29.788Z,100.18
2022-12-17T00:49:11.816Z,101.13
2022-12-17T00:51:53.830Z,103.50
2022-12-17T00:54:35.939Z,90.03
2022-12-17T00:57:20.542Z,92.18
2022-12-17T01:00:02.536Z,90.90
2022-12-17T01:02:44.606Z,91.40
2022-12-17T01:05:27.637Z,95.85
2022-12-17T01:08:09.752Z,92.00
2022-12-17T01:10:52.693Z,94.50
2022-12-17T01:13:37.636Z,125.65
2022-12-17T01:16:20.313Z,136.88
2022-12-17T01:19:02.323Z,145.55
2022-12-17T01:21:44.353Z,142.82
2022-12-17T01:24:26.459Z,113.70
2022-12-17T01:27:08.390Z,105.80
2022-12-17T01:29:54.234Z,96.25
2022-12-17T01:32:36.151Z,91.53
2022-12-17T01:35:18.170Z,80.57
2022-12-17T01:38:00.707Z,91.40
2022-12-17T01:40:42.675Z,82.38
2022-12-17T01:43:27.022Z,76.22
2022-12-17T01:46:11.639Z,82.10
2022-12-17T01:49:02.995Z,87.28
2022-12-17T01:51:45.399Z,90.18
2022-12-17T01:54:27.687Z,80.65
2022-12-17T01:57:09.939Z,85.95
2022-12-17T01:59:57.889Z,81.57
2022-12-17T02:02:42.581Z,81.13
2022-12-17T02:05:24.655Z,77.10
2022-12-17T02:08:13.925Z,96.35
2022-12-17T02:11:00.868Z,84.03
2022-12-17T02:13:46.699Z,79.00
2022-12-17T02:16:31.707Z,76.40
2022-12-17T02:19:21.957Z,78.20
2022-12-17T02:22:09.356Z,80.25
2022-12-17T02:24:57.290Z,85.85
2022-12-17T02:27:42.243Z,84.47
2022-12-17T02:30:25.685Z,90.60
2022-12-17T02:33:08.563Z,80.38
2022-12-17T02:35:53.641Z,96.90
2022-12-17T02:38:37.360Z,83.25
2022-12-17T02:41:20.606Z,80.18
2022-12-17T02:44:05.581Z,98.22
2022-12-17T02:46:47.449Z,84.95
2022-12-17T02:49:29.390Z,85.40
2022-12-17T02:52:19.799Z,97.78
2022-12-17T02:55:01.624Z,94.25
2022-12-17T02:57:44.103Z,87.47
2022-12-17T03:00:30.629Z,91.13
2022-12-17T03:03:12.579Z,86.65
2022-12-17T03:05:54.671Z,79.82
2022-12-17T03:08:36.529Z,86.93
2022-12-17T03:11:21.205Z,82.70
2022-12-17T03:14:03.073Z,88.68
2022-12-17T03:16:47.974Z,88.05
2022-12-17T03:19:29.947Z,81.32
2022-12-17T03:22:11.900Z,96.43
2022-12-17T03:24:53.830Z,84.47
2022-12-17T03:27:35.711Z,87.78
2022-12-17T03:30:17.651Z,80.90
2022-12-17T03:33:02.114Z,85.55
2022-12-17T03:35:44.023Z,84.25
2022-12-17T03:38:26.338Z,83.07
2022-12-17T03:41:08.272Z,78.88
2022-12-17T03:43:50.105Z,82.07
2022-12-17T03:46:32.068Z,80.13
2022-12-17T03:49:16.600Z,89.93
2022-12-17T03:51:58.648Z,92.70
2022-12-17T03:54:40.753Z,90.35
2022-12-17T03:57:22.643Z,91.47
2022-12-17T04:00:04.523Z,83.28
2022-12-17T04:02:46.557Z,88.13
2022-12-17T04:05:31.364Z,92.80
2022-12-17T04:08:13.513Z,88.22
2022-12-17T04:10:55.368Z,88.50
2022-12-17T04:13:41.094Z,88.97
2022-12-17T04:16:23.545Z,96.43
2022-12-17T04:19:05.408Z,90.25
2022-12-17T04:21:50.121Z,91.60
2022-12-17T04:24:32.047Z,84.75
2022-12-17T04:27:13.928Z,92.97
2022-12-17T04:29:55.829Z,187.48
2022-12-17T04:32:37.717Z,130.90
2022-12-17T04:35:20.430Z,126.15
2022-12-17T04:38:05.364Z,139.80
2022-12-17T04:40:47.505Z,121.05
2022-12-17T04:43:29.428Z,94.47
2022-12-17T04:46:11.459Z,78.85
2022-12-17T04:48:53.424Z,63.17
2022-12-17T04:51:35.343Z,68.47
2022-12-17T04:54:19.961Z,63.47
2022-12-17T04:57:01.853Z,67.20
2022-12-17T04:59:43.691Z,69.47
2022-12-17T05:02:25.852Z,64.13
2022-12-17T05:05:07.860Z,60.72
2022-12-17T05:07:49.714Z,72.88
2022-12-17T05:10:34.216Z,73.53
2022-12-17T05:13:17.143Z,66.78
2022-12-17T05:15:59.067Z,72.47
2022-12-17T05:18:40.982Z,68.28
2022-12-17T05:21:23.205Z,68.88
2022-12-17T05:24:05.123Z,68.07
2022-12-17T05:26:49.542Z,69.50
2022-12-17T05:29:31.422Z,71.80
2022-12-17T05:32:13.417Z,70.65
2022-12-17T05:34:55.404Z,71.90
2022-12-17T05:37:39.636Z,61.17
2022-12-17T05:40:23.388Z,64.30
2022-12-17T05:43:13.090Z,71.57
2022-12-17T05:45:55.305Z,139.18
2022-12-17T05:48:37.166Z,75.18
2022-12-17T05:51:19.172Z,95.90
2022-12-17T05:54:01.065Z,83.18
2022-12-17T05:56:42.963Z,65.40
2022-12-17T05:59:27.411Z,75.03
2022-12-17T06:02:09.316Z,74.47
2022-12-17T06:04:51.234Z,69.97
2022-12-17T06:07:33.122Z,70.53
2022-12-17T06:10:14.965Z,70.07
2022-12-17T06:12:56.879Z,70.57
2022-12-17T06:15:41.624Z,69.95
2022-12-17T06:18:35.848Z,76.97
2022-12-17T06:21:17.724Z,78.95
2022-12-17T06:23:59.697Z,69.72
2022-12-17T06:26:41.551Z,77.38
2022-12-17T06:29:23.484Z,77.30
2022-12-17T06:32:07.947Z,82.28
2022-12-17T06:34:49.895Z,76.18
2022-12-17T06:37:31.760Z,76.30
2022-12-17T06:40:13.714Z,75.70
2022-12-17T06:42:55.550Z,75.70
2022-12-17T06:45:37.459Z,69.90
2022-12-17T06:48:23.829Z,74.40
2022-12-17T06:51:07.062Z,80.90
2022-12-17T06:53:48.955Z,68.47
2022-12-17T06:56:30.894Z,74.25
2022-12-17T06:59:12.796Z,69.47
2022-12-17T07:01:54.774Z,82.25
2022-12-17T07:04:39.355Z,70.85
2022-12-17T07:07:21.244Z,70.68
2022-12-17T07:10:03.123Z,83.47
2022-12-17T07:12:44.976Z,77.32
2022-12-17T07:15:26.843Z,71.50
2022-12-17T07:18:27.549Z,69.63
2022-12-17T07:21:12.039Z,73.50
2022-12-17T07:23:56.770Z,66.47
2022-12-17T07:26:38.672Z,65.68
2022-12-17T07:29:21.127Z,65.22
2022-12-17T07:32:03.108Z,62.28
2022-12-17T07:34:53.544Z,78.07
2022-12-17T07:37:38.017Z,82.35
2022-12-17T07:40:21.173Z,72.85
2022-12-17T07:43:03.052Z,66.90
2022-12-17T07:45:44.992Z,69.40
2022-12-17T07:48:27.343Z,71.18
2022-12-17T07:51:09.264Z,68.43
2022-12-17T07:53:53.744Z,66.18
2022-12-17T07:56:35.616Z,74.45
2022-12-17T07:59:17.471Z,67.78
2022-12-17T08:01:59.549Z,68.63
2022-12-17T08:04:41.571Z,70.65
2022-12-17T08:07:23.498Z,65.35
2022-12-17T08:10:07.955Z,68.22
2022-12-17T08:12:49.820Z,66.25
2022-12-17T08:15:31.747Z,66.35
2022-12-17T08:18:15.819Z,62.55
2022-12-17T08:20:57.723Z,68.10
2022-12-17T08:23:39.828Z,64.65
2022-12-17T08:26:24.340Z,66.60
2022-12-17T08:29:15.014Z,68.57
2022-12-17T08:31:56.882Z,61.63
2022-12-17T08:34:39.038Z,67.57
2022-12-17T08:37:20.939Z,69.45
2022-12-17T08:40:02.798Z,63.78
2022-12-17T08:42:47.264Z,58.45
2022-12-17T08:45:29.279Z,67.45
2022-12-17T08:48:17.984Z,64.65
2022-12-17T08:50:59.828Z,57.10
2022-12-17T08:53:42.562Z,54.38
2022-12-17T08:56:24.653Z,65.07
2022-12-17T08:59:09.209Z,67.60
2022-12-17T09:01:51.244Z,67.78
2022-12-17T09:04:36.144Z,58.63
2022-12-17T09:07:18.088Z,59.83
2022-12-17T09:10:00.206Z,61.13
2022-12-17T09:12:42.251Z,61.45
2022-12-17T09:15:26.941Z,62.60
2022-12-17T09:18:08.820Z,56.42
2022-12-17T09:20:50.729Z,71.50
2022-12-17T09:23:33.309Z,55.33
2022-12-17T09:26:16.004Z,60.80
2022-12-17T09:28:57.867Z,70.95
2022-12-17T09:31:51.116Z,65.97
2022-12-17T09:34:33.241Z,73.88
2022-12-17T09:37:15.154Z,67.35
2022-12-17T09:39:57.004Z,64.82
2022-12-17T09:42:43.338Z,61.10
2022-12-17T09:45:32.713Z,65.38
2022-12-17T09:48:21.796Z,53.95
2022-12-17T09:51:05.886Z,61.83
2022-12-17T09:53:51.774Z,51.42
2022-12-17T09:56:45.145Z,66.70
2022-12-17T09:59:34.250Z,67.30
2022-12-17T10:02:17.949Z,65.47
2022-12-17T10:05:03.283Z,61.13
2022-12-17T10:07:54.360Z,66.18
2022-12-17T10:10:38.797Z,60.55
2022-12-17T10:13:26.139Z,68.68
2022-12-17T10:16:08.121Z,59.58
2022-12-17T10:18:50.176Z,70.22
2022-12-17T10:21:34.864Z,60.35
2022-12-17T10:24:20.459Z,67.18
2022-12-17T10:27:04.012Z,59.60
2022-12-17T10:29:48.477Z,65.22
2022-12-17T10:32:36.019Z,58.53
2022-12-17T10:35:23.002Z,59.20
2022-12-17T10:38:10.261Z,49.60
2022-12-17T10:40:52.220Z,51.67
2022-12-17T10:43:42.395Z,49.20
2022-12-17T10:46:24.395Z,50.15
2022-12-17T10:49:11.208Z,54.67
2022-12-17T10:51:53.646Z,52.38
2022-12-17T10:54:46.978Z,56.33
2022-12-17T10:57:46.347Z,36.00
2022-12-17T11:00:41.925Z,37.45
2022-12-17T11:03:42.287Z,42.90
2022-12-17T11:06:24.453Z,47.42
2022-12-17T11:09:06.330Z,47.20
2022-12-17T11:11:50.764Z,48.30
2022-12-17T11:14:32.739Z,44.60
2022-12-17T11:17:17.958Z,43.00
2022-12-17T11:20:04.081Z,39.75
2022-12-17T11:22:51.883Z,55.05
2022-12-17T11:25:43.104Z,44.75
2022-12-17T11:28:32.320Z,46.35
2022-12-17T11:31:22.826Z,35.38
2022-12-17T11:34:06.753Z,44.05
2022-12-17T11:36:54.828Z,33.92
2022-12-17T11:39:42.441Z,30.30
2022-12-17T11:42:31.779Z,31.15
2022-12-17T11:45:20.705Z,46.53
2022-12-17T11:48:07.724Z,25.80
2022-12-17T11:51:05.954Z,27.35
2022-12-17T11:54:01.567Z,30.60
2022-12-17T11:56:48.057Z,40.42
2022-12-17T11:59:37.788Z,35.83
2022-12-17T12:02:33.603Z,27.85
2022-12-17T12:05:27.276Z,28.92
2022-12-17T12:08:15.037Z,22.50
2022-12-17T12:11:04.225Z,39.97
2022-12-17T12:13:53.072Z,55.47
2022-12-17T12:16:43.534Z,36.80
2022-12-17T12:19:32.238Z,24.55
2022-12-17T12:22:17.711Z,27.05
2022-12-17T12:25:14.552Z,25.05
2022-12-17T12:28:03.616Z,25.17
2022-12-17T12:30:50.477Z,25.00
2022-12-17T12:33:38.008Z,17.02
2022-12-17T12:36:25.808Z,29.20
2022-12-17T12:39:09.644Z,23.50
2022-12-17T12:41:56.818Z,16.70
2022-12-17T12:44:49.472Z,18.58
2022-12-17T12:47:37.063Z,15.38
2022-12-17T12:50:27.552Z,20.35
2022-12-17T12:53:12.601Z,12.63
2022-12-17T12:55:55.621Z,18.80
2022-12-17T12:58:42.640Z,19.92
2022-12-17T13:01:25.112Z,21.30
2022-12-17T13:04:09.225Z,21.73
2022-12-17T13:06:45.571Z,25.33
2022-12-17T13:09:35.066Z,26.40
2022-12-17T13:12:22.264Z,22.05
2022-12-17T13:14:56.615Z,20.40
2022-12-17T13:17:35.624Z,23.83
2022-12-17T13:20:24.885Z,22.30
2022-12-17T13:22:56.039Z,16.90
2022-12-17T13:25:28.125Z,19.67
2022-12-17T13:27:57.641Z,27.20
2022-12-17T13:30:34.493Z,16.97
2022-12-17T13:33:25.632Z,18.97
2022-12-17T13:36:04.041Z,17.55
2022-12-17T13:38:38.650Z,49.50
2022-12-17T13:41:14.058Z,25.20
2022-12-17T13:43:47.342Z,26.33
2022-12-17T13:46:22.176Z,37.67
2022-12-17T13:48:56.531Z,18.80
2022-12-17T13:51:27.494Z,18.33
2022-12-17T13:53:58.854Z,21.85
2022-12-17T13:56:33.226Z,27.20
2022-12-17T13:59:08.754Z,21.08
2022-12-17T14:01:47.314Z,23.70
2022-12-17T14:04:27.506Z,20.70
2022-12-17T14:06:59.185Z,21.90
2022-12-17T14:09:34.932Z,23.23
2022-12-17T14:12:20.888Z,24.08
2022-12-17T14:14:52.376Z,21.02
2022-12-17T14:17:24.270Z,24.67
2022-12-17T14:19:59.978Z,19.65
2022-12-17T14:22:36.186Z,20.80
2022-12-17T14:25:10.843Z,34.58
2022-12-17T14:27:43.875Z,23.58
2022-12-17T14:30:25.348Z,23.17
2022-12-17T14:32:55.000Z,19.95
2022-12-17T14:35:29.819Z,26.10
2022-12-17T14:37:59.445Z,24.17
2022-12-17T14:40:29.344Z,20.33
2022-12-17T14:43:03.719Z,20.25
2022-12-17T14:45:53.534Z,23.20
2022-12-17T14:48:43.069Z,23.48
2022-12-17T14:51:23.910Z,21.55
2022-12-17T14:53:53.393Z,28.45
2022-12-17T14:56:25.820Z,24.77
2022-12-17T14:58:57.835Z,24.70
2022-12-17T15:01:27.466Z,29.50
2022-12-17T15:03:57.093Z,22.80
2022-12-17T15:06:27.028Z,23.38
2022-12-17T15:08:56.453Z,29.27
2022-12-17T15:11:26.082Z,26.90
2022-12-17T15:13:58.423Z,28.73
2022-12-17T15:16:28.202Z,28.10
2022-12-17T15:18:57.695Z,27.13
2022-12-17T15:21:27.751Z,29.58
2022-12-17T15:23:57.255Z,30.98
2022-12-17T15:26:26.747Z,31.60
2022-12-17T15:28:58.854Z,36.17
2022-12-17T15:31:32.042Z,28.55
2022-12-17T15:34:04.554Z,26.92
2022-12-17T15:36:34.688Z,28.30
2022-12-17T15:39:06.227Z,29.75
2022-12-17T15:41:48.172Z,32.38
2022-12-17T15:44:20.209Z,34.40
2022-12-17T15:46:49.827Z,33.40
2022-12-17T15:49:19.320Z,33.97
2022-12-17T15:51:48.902Z,29.48
2022-12-17T15:54:18.404Z,36.60
2022-12-17T15:56:54.823Z,32.42
2022-12-17T15:59:27.568Z,29.30
2022-12-17T16:01:57.162Z,28.33
2022-12-17T16:04:26.701Z,28.85
2022-12-17T16:06:56.190Z,33.42
2022-12-17T16:09:28.059Z,29.42
2022-12-17T16:11:57.887Z,32.63
2022-12-17T16:14:29.964Z,35.28
2022-12-17T16:16:59.410Z,39.83
2022-12-17T16:19:29.327Z,33.22
2022-12-17T16:21:59.094Z,31.45
2022-12-17T16:24:28.522Z,33.72
2022-12-17T16:27:04.105Z,26.48
2022-12-17T16:29:36.854Z,42.08
2022-12-17T16:32:06.597Z,29.70
2022-12-17T16:34:36.060Z,27.13
2022-12-17T16:37:06.854Z,24.40
2022-12-17T16:39:36.348Z,31.17
2022-12-17T16:42:06.245Z,25.88
2022-12-17T16:44:39.466Z,28.95
2022-12-17T16:47:09.088Z,26.73
2022-12-17T16:49:38.578Z,32.03
2022-12-17T16:52:08.092Z,27.92
2022-12-17T16:54:37.560Z,30.35
2022-12-17T16:57:06.961Z,27.02
2022-12-17T16:59:39.077Z,31.83
2022-12-17T17:02:08.889Z,32.03
2022-12-17T17:04:39.280Z,25.40
2022-12-17T17:07:08.824Z,32.03
2022-12-17T17:09:38.274Z,34.33
2022-12-17T17:12:09.328Z,29.13
2022-12-17T17:14:43.856Z,35.53
2022-12-17T17:17:13.909Z,35.78
2022-12-17T17:19:43.343Z,28.92
2022-12-17T17:22:12.826Z,33.45
2022-12-17T17:24:42.208Z,32.78
2022-12-17T17:27:12.329Z,38.92
2022-12-17T17:29:44.356Z,27.92
2022-12-17T17:32:14.224Z,37.95
2022-12-17T17:34:43.838Z,33.80
2022-12-17T17:37:13.600Z,32.60
2022-12-17T17:39:43.147Z,33.08
2022-12-17T17:42:12.622Z,34.05
2022-12-17T17:44:44.932Z,31.35
2022-12-17T17:47:14.410Z,29.85
2022-12-17T17:49:43.891Z,38.03
2022-12-17T17:52:13.400Z,42.38
2022-12-17T17:54:43.363Z,35.67
2022-12-17T17:57:13.080Z,37.70
2022-12-17T17:59:45.473Z,37.17
2022-12-17T18:02:14.973Z,36.70
2022-12-17T18:04:44.494Z,36.08
2022-12-17T18:07:29.794Z,38.15
2022-12-17T18:09:59.735Z,34.03
2022-12-17T18:12:41.892Z,40.42
2022-12-17T18:15:16.213Z,40.65
2022-12-17T18:17:47.135Z,39.63
2022-12-17T18:20:16.990Z,44.95
2022-12-17T18:22:47.048Z,44.00
2022-12-17T18:25:17.698Z,40.97
2022-12-17T18:27:47.360Z,35.15
2022-12-17T18:30:19.601Z,35.92
2022-12-17T18:32:49.530Z,39.03
2022-12-17T18:35:19.255Z,37.95
2022-12-17T18:37:48.743Z,39.50
2022-12-17T18:40:18.307Z,36.13
2022-12-17T18:43:00.271Z,42.75
2022-12-17T18:45:32.360Z,39.33
2022-12-17T18:48:01.823Z,34.50
2022-12-17T18:50:31.375Z,49.38
2022-12-17T18:53:00.816Z,33.33
2022-12-17T18:55:30.378Z,26.92
2022-12-17T18:58:01.591Z,36.10
2022-12-17T19:00:33.750Z,32.53
2022-12-17T19:03:04.477Z,32.17
2022-12-17T19:05:33.995Z,36.60
2022-12-17T19:08:03.480Z,31.17
2022-12-17T19:10:32.937Z,35.60
2022-12-17T19:13:02.360Z,34.95
2022-12-17T19:15:34.606Z,33.42
2022-12-17T19:18:04.064Z,38.55
2022-12-17T19:20:33.538Z,38.65
2022-12-17T19:23:02.952Z,37.22
2022-12-17T19:25:32.349Z,40.08
2022-12-17T19:28:01.782Z,32.80
2022-12-17T19:30:33.745Z,37.55
2022-12-17T19:33:10.395Z,35.88
2022-12-17T19:35:40.080Z,37.50
2022-12-17T19:38:09.540Z,40.75
2022-12-17T19:40:39.043Z,42.60
2022-12-17T19:43:08.963Z,45.90
2022-12-17T19:45:41.091Z,43.53
2022-12-17T19:48:14.553Z,38.15
2022-12-17T19:50:44.041Z,41.67
2022-12-17T19:53:13.642Z,44.85
2022-12-17T19:55:45.179Z,47.33
2022-12-17T19:58:14.598Z,52.35
2022-12-17T20:00:46.761Z,58.55
2022-12-17T20:03:16.623Z,54.78
2022-12-17T20:05:47.479Z,50.33
2022-12-17T20:08:22.171Z,56.75
2022-12-17T20:10:51.942Z,51.08
2022-12-17T20:13:21.324Z,53.30
2022-12-17T20:16:01.967Z,44.63
2022-12-17T20:18:32.406Z,55.22
2022-12-17T20:21:05.941Z,50.00
2022-12-17T20:23:35.768Z,52.65
2022-12-17T20:26:05.977Z,53.65
2022-12-17T20:28:35.923Z,54.45
2022-12-17T20:31:08.665Z,50.38
2022-12-17T20:33:38.637Z,45.03
2022-12-17T20:36:08.996Z,56.25
2022-12-17T20:38:39.248Z,44.05
2022-12-17T20:41:12.711Z,51.40
2022-12-17T20:43:42.589Z,48.22
2022-12-17T20:46:14.906Z,45.47
2022-12-17T20:48:46.535Z,43.15
2022-12-17T20:51:17.499Z,44.15
2022-12-17T20:53:47.515Z,54.05
2022-12-17T20:56:19.222Z,44.60
2022-12-17T20:58:48.859Z,41.90
2022-12-17T21:01:23.334Z,48.45
2022-12-17T21:03:53.793Z,47.88
2022-12-17T21:06:25.166Z,44.97
2022-12-17T21:08:56.067Z,45.53
2022-12-17T21:11:27.238Z,45.38
2022-12-17T21:13:57.469Z,44.63
2022-12-17T21:16:32.603Z,47.97
2022-12-17T21:19:03.883Z,36.38
2022-12-17T21:21:35.855Z,47.20
2022-12-17T21:24:05.494Z,40.00
2022-12-17T21:26:36.367Z,41.80
2022-12-17T21:29:07.976Z,42.78
2022-12-17T21:31:41.819Z,35.22
2022-12-17T21:34:14.763Z,40.50
2022-12-17T21:36:44.949Z,46.17
2022-12-17T21:39:16.127Z,45.60
2022-12-17T21:42:06.803Z,35.63
2022-12-17T21:44:36.311Z,40.50
2022-12-17T21:47:08.491Z,44.05
2022-12-17T21:49:37.901Z,40.40
2022-12-17T21:52:08.187Z,41.20
2022-12-17T21:54:40.862Z,39.88
2022-12-17T21:57:10.343Z,44.92
2022-12-17T21:59:39.842Z,42.25
2022-12-17T22:02:12.546Z,37.17
2022-12-17T22:04:42.562Z,40.38
2022-12-17T22:07:12.151Z,49.83
2022-12-17T22:10:18.123Z,43.90
2022-12-17T22:12:47.942Z,41.85
2022-12-17T22:15:17.416Z,33.65
2022-12-17T22:17:50.113Z,37.55
2022-12-17T22:20:19.652Z,36.42
2022-12-17T22:22:49.169Z,40.08
2022-12-17T22:25:19.124Z,36.67
2022-12-17T22:27:48.725Z,35.85
2022-12-17T22:30:32.066Z,36.20
2022-12-17T22:33:08.558Z,39.55
2022-12-17T22:39:18.464Z,36.50
2022-12-17T22:43:49.865Z,39.35
2022-12-17T22:44:30.915Z,34.95
2022-12-17T22:44:51.918Z,35.45
2022-12-17T22:47:22.687Z,31.45
2022-12-17T22:49:54.701Z,33.92
2022-12-17T22:52:24.767Z,38.58
2022-12-17T22:54:54.489Z,45.35
2022-12-17T22:57:36.847Z,31.90
2022-12-17T23:00:11.064Z,33.53
2022-12-17T23:02:40.741Z,32.60
2022-12-17T23:05:13.023Z,30.83
2022-12-17T23:07:42.395Z,45.63
2022-12-17T23:10:12.633Z,36.90
2022-12-17T23:12:54.933Z,38.88
2022-12-17T23:15:27.634Z,37.45
2022-12-17T23:17:59.815Z,37.00
2022-12-17T23:20:34.516Z,40.33
2022-12-17T23:23:03.989Z,37.05
2022-12-17T23:25:33.640Z,47.50
2022-12-17T23:28:03.074Z,31.73
2022-12-17T23:30:32.503Z,39.78
2022-12-17T23:33:01.943Z,37.22
2022-12-17T23:35:34.286Z,33.90
2022-12-17T23:38:03.750Z,39.55
2022-12-17T23:40:33.175Z,32.78
2022-12-17T23:43:02.819Z,33.20
2022-12-17T23:45:32.316Z,32.92
2022-12-17T23:48:01.703Z,32.58
2022-12-17T23:50:33.727Z,29.60
2022-12-17T23:53:03.075Z,28.20
2022-12-17T23:55:32.499Z,33.47
2022-12-17T23:58:01.893Z,34.03
